Goncalves Dias, Brazil
Current Conditions -  °F | °C
As of 7:00 PM on Tuesday 25 Nov 2014 (Local Time) from SBTE Reporting Station
Clear Clear  
Wind Chill: 90°   Ceiling: Unl
Heat Index: 91°   Visibility: 6mi
Dew Point: 64°   Wind: 3mph
Humidity: 43%   Direction: 230°SW
Pressure: 29.71"   Gusts: NA
Location:  5.15°S, 44.3°W
Report Text: SBTE 252200Z 23003KT CAVOK 32/18 Q1006
Loading
Personal Weather Stations






























Interactive Weather Map New forecast layout! Learn more

10-Day Weather Forecast

Advertisements
Track Severe Weather on mobile